createdAt,value
2018-07-04T00:00:37.911Z,3.50
2018-07-04T00:02:51.783Z,3.60
2018-07-04T00:05:05.468Z,3.13
2018-07-04T00:07:19.113Z,3.30
2018-07-04T00:09:32.894Z,3.60
2018-07-04T00:11:46.580Z,3.83
2018-07-04T00:14:00.252Z,3.30
2018-07-04T00:16:13.935Z,3.53
2018-07-04T00:18:27.569Z,3.07
2018-07-04T00:20:41.280Z,3.93
2018-07-04T00:22:54.847Z,3.20
2018-07-04T00:25:08.483Z,3.57
2018-07-04T00:27:16.476Z,3.63
2018-07-04T00:29:30.111Z,3.67
2018-07-04T00:31:43.885Z,3.93
2018-07-04T00:33:57.618Z,3.60
2018-07-04T00:36:11.260Z,3.20
2018-07-04T00:38:24.841Z,3.60
2018-07-04T00:40:38.748Z,3.60
2018-07-04T00:42:52.543Z,3.63
2018-07-04T00:45:00.444Z,4.00
2018-07-04T00:47:14.137Z,3.77
2018-07-04T00:49:27.779Z,3.83
2018-07-04T00:51:41.452Z,3.40
2018-07-04T00:53:55.207Z,4.13
2018-07-04T00:56:08.973Z,3.67
2018-07-04T00:58:22.702Z,3.60
2018-07-04T01:00:36.297Z,4.00
2018-07-04T01:02:49.864Z,3.97
2018-07-04T01:05:03.497Z,3.83
2018-07-04T01:07:17.291Z,3.10
2018-07-04T01:09:30.964Z,3.50
2018-07-04T01:11:44.621Z,4.40
2018-07-04T01:13:58.400Z,3.50
2018-07-04T01:16:12.098Z,3.60
2018-07-04T01:18:25.669Z,3.07
2018-07-04T01:20:45.154Z,3.63
2018-07-04T01:22:58.862Z,3.90
2018-07-04T01:25:12.594Z,3.63
2018-07-04T01:27:26.305Z,3.87
2018-07-04T01:29:39.956Z,4.17
2018-07-04T01:31:47.721Z,3.40
2018-07-04T01:34:01.317Z,4.20
2018-07-04T01:36:15.070Z,3.30
2018-07-04T01:38:28.719Z,3.50
2018-07-04T01:40:42.378Z,4.10
2018-07-04T01:42:50.120Z,3.80
2018-07-04T01:45:03.877Z,3.80
2018-07-04T01:47:17.457Z,3.73
2018-07-04T01:49:31.168Z,3.30
2018-07-04T01:51:44.916Z,2.93
2018-07-04T01:53:52.796Z,3.63
2018-07-04T01:56:06.545Z,3.90
2018-07-04T01:58:20.420Z,3.27
2018-07-04T02:00:34.025Z,3.53
2018-07-04T02:02:47.648Z,3.57
2018-07-04T02:05:01.195Z,3.97
2018-07-04T02:07:14.922Z,4.30
2018-07-04T02:09:28.631Z,3.23
2018-07-04T02:11:42.196Z,3.53
2018-07-04T02:13:55.823Z,3.90
2018-07-04T02:16:09.472Z,3.47
2018-07-04T02:18:23.175Z,3.97
2018-07-04T02:20:36.932Z,3.90
2018-07-04T02:22:50.495Z,4.40
2018-07-04T02:25:04.301Z,3.87
2018-07-04T02:27:17.866Z,3.97
2018-07-04T02:29:31.563Z,3.93
2018-07-04T02:31:45.098Z,4.23
2018-07-04T02:33:58.862Z,5.00
2018-07-04T02:36:12.536Z,4.40
2018-07-04T02:38:26.069Z,4.00
2018-07-04T02:40:39.937Z,4.47
2018-07-04T02:42:53.529Z,3.87
2018-07-04T02:45:07.305Z,4.37
2018-07-04T02:47:26.061Z,4.27
2018-07-04T02:49:39.788Z,4.30
2018-07-04T02:51:53.409Z,4.23
2018-07-04T02:54:01.175Z,4.20
2018-07-04T02:56:14.973Z,4.57
2018-07-04T02:58:28.666Z,4.10
2018-07-04T03:00:42.265Z,4.20
2018-07-04T03:02:56.028Z,5.00
2018-07-04T03:05:09.881Z,4.13
2018-07-04T03:07:23.736Z,4.30
2018-07-04T03:09:37.681Z,3.80
2018-07-04T03:11:51.381Z,3.73
2018-07-04T03:14:05.070Z,3.80
2018-07-04T03:16:18.742Z,4.40
2018-07-04T03:18:32.521Z,4.43
2018-07-04T03:20:46.120Z,4.40
2018-07-04T03:22:59.849Z,4.30
2018-07-04T03:25:13.630Z,3.93
2018-07-04T03:27:27.205Z,4.97
2018-07-04T03:29:40.923Z,4.53
2018-07-04T03:31:54.589Z,3.87
2018-07-04T03:34:08.146Z,3.80
2018-07-04T03:36:21.848Z,3.97
2018-07-04T03:38:35.488Z,3.90
2018-07-04T03:40:49.129Z,3.73
2018-07-04T03:43:02.911Z,3.70
2018-07-04T03:45:16.692Z,4.47
2018-07-04T03:47:30.292Z,4.80
2018-07-04T03:49:43.909Z,4.50
2018-07-04T03:51:57.637Z,4.23
2018-07-04T03:54:11.249Z,4.30
2018-07-04T03:56:24.900Z,5.00
2018-07-04T03:58:38.621Z,4.70
2018-07-04T04:00:52.595Z,4.77
2018-07-04T04:03:06.092Z,5.77
2018-07-04T04:05:19.728Z,5.10
2018-07-04T04:07:33.292Z,6.57
2018-07-04T04:09:47.434Z,5.90
2018-07-04T04:12:01.281Z,6.47
2018-07-04T04:14:14.984Z,6.50
2018-07-04T04:16:28.549Z,7.10
2018-07-04T04:18:42.208Z,8.73
2018-07-04T04:20:55.929Z,8.40
2018-07-04T04:23:09.732Z,7.60
2018-07-04T04:25:23.367Z,7.70
2018-07-04T04:27:37.121Z,8.47
2018-07-04T04:29:50.909Z,8.40
2018-07-04T04:32:04.512Z,7.93
2018-07-04T04:34:18.279Z,7.70
2018-07-04T04:36:31.941Z,8.60
2018-07-04T04:38:45.713Z,8.17
2018-07-04T04:40:59.273Z,8.97
2018-07-04T04:43:12.970Z,7.77
2018-07-04T04:45:26.624Z,7.67
2018-07-04T04:47:40.327Z,8.37
2018-07-04T04:49:54.818Z,9.23
2018-07-04T04:52:08.369Z,7.87
2018-07-04T04:54:22.129Z,8.33
2018-07-04T04:56:35.684Z,7.97
2018-07-04T04:58:49.386Z,8.23
2018-07-04T05:01:03.168Z,8.70
2018-07-04T05:03:16.843Z,7.80
2018-07-04T05:05:30.476Z,8.47
2018-07-04T05:07:44.317Z,8.40
2018-07-04T05:09:58.025Z,7.90
2018-07-04T05:12:11.668Z,7.13
2018-07-04T05:14:25.380Z,8.50
2018-07-04T05:16:39.041Z,8.40
2018-07-04T05:18:52.655Z,9.00
2018-07-04T05:21:06.425Z,7.50
2018-07-04T05:23:20.168Z,7.90
2018-07-04T05:25:33.997Z,6.80
2018-07-04T05:27:47.596Z,7.50
2018-07-04T05:30:01.417Z,8.37
2018-07-04T05:32:15.013Z,8.47
2018-07-04T05:34:29.036Z,8.30
2018-07-04T05:36:42.770Z,7.00
2018-07-04T05:38:56.380Z,7.53
2018-07-04T05:41:10.171Z,8.20
2018-07-04T05:43:23.984Z,8.33
2018-07-04T05:45:37.619Z,7.70
2018-07-04T05:47:51.410Z,8.00
2018-07-04T05:50:05.113Z,7.43
2018-07-04T05:52:18.695Z,7.87
2018-07-04T05:54:32.469Z,6.97
2018-07-04T05:56:46.181Z,6.83
2018-07-04T05:58:59.772Z,7.50
2018-07-04T06:01:13.525Z,8.57
2018-07-04T06:03:27.226Z,7.30
2018-07-04T06:05:41.046Z,8.70
2018-07-04T06:07:54.829Z,7.30
2018-07-04T06:10:08.469Z,8.10
2018-07-04T06:12:22.252Z,6.93
2018-07-04T06:14:35.988Z,7.47
2018-07-04T06:16:49.604Z,7.10
2018-07-04T06:19:03.280Z,7.40
2018-07-04T06:21:17.070Z,7.37
2018-07-04T06:23:30.570Z,7.20
2018-07-04T06:25:44.371Z,6.80
2018-07-04T06:27:58.120Z,7.00
2018-07-04T06:30:11.708Z,7.63
2018-07-04T06:32:25.385Z,8.07
2018-07-04T06:34:39.217Z,6.63
2018-07-04T06:36:53.115Z,7.27
2018-07-04T06:38:54.312Z,6.67
2018-07-04T06:40:55.529Z,6.80
2018-07-04T06:42:56.733Z,6.00
2018-07-04T06:44:58.415Z,6.30
2018-07-04T06:46:59.613Z,6.70
2018-07-04T06:49:00.897Z,6.80
2018-07-04T06:51:02.006Z,6.50
2018-07-04T06:53:03.188Z,6.63
2018-07-04T06:55:04.380Z,5.60
2018-07-04T06:57:05.584Z,6.00
2018-07-04T06:59:06.773Z,6.07
2018-07-04T07:01:07.977Z,6.67
2018-07-04T07:03:21.584Z,4.80
2018-07-04T07:05:35.312Z,5.93
2018-07-04T07:07:49.019Z,5.70
2018-07-04T07:09:57.012Z,5.60
2018-07-04T07:12:10.670Z,5.33
2018-07-04T07:14:24.351Z,5.33
2018-07-04T07:16:37.940Z,5.70
2018-07-04T07:18:51.621Z,5.70
2018-07-04T07:21:05.256Z,6.70
2018-07-04T07:23:18.969Z,5.00
2018-07-04T07:25:32.593Z,5.47
2018-07-04T07:27:46.342Z,5.73
2018-07-04T07:29:59.982Z,5.23
2018-07-04T07:32:13.721Z,5.83
2018-07-04T07:34:27.415Z,5.60
2018-07-04T07:36:41.121Z,5.90
2018-07-04T07:38:54.676Z,6.47
2018-07-04T07:41:08.320Z,4.80
2018-07-04T07:43:22.145Z,6.57
2018-07-04T07:45:35.757Z,5.63
2018-07-04T07:47:49.396Z,5.43
2018-07-04T07:50:03.018Z,6.17
2018-07-04T07:52:16.786Z,5.87
2018-07-04T07:54:30.663Z,6.63
2018-07-04T07:56:44.285Z,7.53
2018-07-04T07:58:58.014Z,6.30
2018-07-04T08:01:11.753Z,6.83
2018-07-04T08:03:25.470Z,6.90
2018-07-04T08:05:39.289Z,5.93
2018-07-04T08:07:53.030Z,5.83
2018-07-04T08:10:06.733Z,6.10
2018-07-04T08:12:20.462Z,5.77
2018-07-04T08:14:34.169Z,5.67
2018-07-04T08:16:47.843Z,6.87
2018-07-04T08:19:01.547Z,5.53
2018-07-04T08:21:15.115Z,7.10
2018-07-04T08:23:28.908Z,5.47
2018-07-04T08:25:42.480Z,5.90
2018-07-04T08:27:56.312Z,5.93
2018-07-04T08:30:09.925Z,5.80
2018-07-04T08:32:23.590Z,5.03
2018-07-04T08:34:37.233Z,5.83
2018-07-04T08:36:50.879Z,5.23
2018-07-04T08:39:04.732Z,5.47
2018-07-04T08:41:18.508Z,6.00
2018-07-04T08:43:32.173Z,5.90
2018-07-04T08:45:45.796Z,6.80
2018-07-04T08:47:53.700Z,5.80
2018-07-04T08:50:07.357Z,6.10
2018-07-04T08:52:20.948Z,6.33
2018-07-04T08:54:34.624Z,5.60
2018-07-04T08:56:48.171Z,5.60
2018-07-04T08:59:01.809Z,6.40
2018-07-04T09:01:15.641Z,5.87
2018-07-04T09:03:29.287Z,6.67
2018-07-04T09:05:42.984Z,6.03
2018-07-04T09:07:56.625Z,6.07
2018-07-04T09:10:10.374Z,5.23
2018-07-04T09:12:24.107Z,6.37
2018-07-04T09:14:37.710Z,6.20
2018-07-04T09:16:45.535Z,5.93
2018-07-04T09:18:59.215Z,5.80
2018-07-04T09:21:12.811Z,5.73
2018-07-04T09:23:26.384Z,6.80
2018-07-04T09:25:40.169Z,5.60
2018-07-04T09:27:53.764Z,5.53
2018-07-04T09:30:07.497Z,6.27
2018-07-04T09:32:21.064Z,5.30
2018-07-04T09:34:34.798Z,5.77
2018-07-04T09:36:48.547Z,5.27
2018-07-04T09:39:02.221Z,5.47
2018-07-04T09:41:15.903Z,4.63
2018-07-04T09:43:29.621Z,5.10
2018-07-04T09:45:43.229Z,5.13
2018-07-04T09:47:56.891Z,5.00
2018-07-04T09:50:10.536Z,4.83
2018-07-04T09:52:24.111Z,4.77
2018-07-04T09:54:37.792Z,4.13
2018-07-04T09:56:51.505Z,5.17
2018-07-04T09:59:05.120Z,4.77
2018-07-04T10:01:22.309Z,4.50
2018-07-04T10:03:36.093Z,4.63
2018-07-04T10:05:43.959Z,4.60
2018-07-04T10:07:57.513Z,5.30
2018-07-04T10:10:11.045Z,4.03
2018-07-04T10:12:24.695Z,4.70
2018-07-04T10:14:38.396Z,3.90
2018-07-04T10:16:52.069Z,3.80
2018-07-04T10:19:05.621Z,4.13
2018-07-04T10:21:19.277Z,4.00
2018-07-04T10:23:32.958Z,3.42
2018-07-04T10:25:46.584Z,3.83
2018-07-04T10:28:00.360Z,4.15
2018-07-04T10:30:14.104Z,4.20
2018-07-04T10:32:27.889Z,4.10
2018-07-04T10:34:41.441Z,3.67
2018-07-04T10:36:55.109Z,3.70
2018-07-04T10:39:08.749Z,3.90
2018-07-04T10:41:22.242Z,3.50
2018-07-04T10:43:35.985Z,3.73
2018-07-04T10:45:49.624Z,4.10
2018-07-04T10:48:03.166Z,4.60
2018-07-04T10:50:16.708Z,3.60
2018-07-04T10:52:30.246Z,3.80
2018-07-04T10:54:44.013Z,4.00
2018-07-04T10:56:57.873Z,3.63
2018-07-04T10:59:11.451Z,3.43
2018-07-04T11:01:25.136Z,3.07
2018-07-04T11:03:38.936Z,3.40
2018-07-04T11:05:53.141Z,3.63
2018-07-04T11:08:06.751Z,2.50
2018-07-04T11:10:20.388Z,2.80
2018-07-04T11:12:34.071Z,3.63
2018-07-04T11:14:47.663Z,3.03
2018-07-04T11:17:01.476Z,3.23
2018-07-04T11:19:15.009Z,3.40
2018-07-04T11:21:28.756Z,4.00
2018-07-04T11:23:42.404Z,3.80
2018-07-04T11:25:55.973Z,4.00
2018-07-04T11:28:09.583Z,3.47
2018-07-04T11:30:23.226Z,3.60
2018-07-04T11:32:36.816Z,4.00
2018-07-04T11:34:44.697Z,4.03
2018-07-04T11:36:58.381Z,3.80
2018-07-04T11:39:12.062Z,3.40
2018-07-04T11:41:25.809Z,3.60
2018-07-04T11:43:39.440Z,3.33
2018-07-04T11:45:54.261Z,3.77
2018-07-04T11:47:55.473Z,3.47
2018-07-04T11:49:56.689Z,3.57
2018-07-04T11:51:57.892Z,3.13
2018-07-04T11:53:59.098Z,3.73
2018-07-04T11:56:00.304Z,3.30
2018-07-04T11:58:01.500Z,3.60
2018-07-04T12:00:02.710Z,3.70
2018-07-04T12:02:03.909Z,4.30
2018-07-04T12:04:17.684Z,3.53
2018-07-04T12:06:31.232Z,3.23
2018-07-04T12:08:32.447Z,3.73
2018-07-04T12:10:33.653Z,3.43
2018-07-04T12:12:34.957Z,3.87
2018-07-04T12:14:36.168Z,4.40
2018-07-04T12:16:37.437Z,3.67
2018-07-04T12:18:38.647Z,3.80
2018-07-04T12:20:41.366Z,3.77
2018-07-04T12:22:42.640Z,3.10
2018-07-04T12:24:43.846Z,3.23
2018-07-04T12:26:45.138Z,3.73
2018-07-04T12:28:46.277Z,3.50
2018-07-04T12:30:47.485Z,3.80
2018-07-04T12:32:48.755Z,3.73
2018-07-04T12:34:49.963Z,3.53
2018-07-04T12:36:51.158Z,5.00
2018-07-04T12:38:52.353Z,3.77
2018-07-04T12:40:53.551Z,4.40
2018-07-04T12:42:55.225Z,4.10
2018-07-04T12:44:56.437Z,4.40
2018-07-04T12:46:57.684Z,3.83
2018-07-04T12:49:01.937Z,4.07
2018-07-04T12:51:03.175Z,3.25
2018-07-04T12:53:04.872Z,4.00
2018-07-04T12:55:18.490Z,3.17
2018-07-04T12:57:32.067Z,4.07
2018-07-04T12:59:45.719Z,4.33
2018-07-04T13:01:59.672Z,3.20
2018-07-04T13:04:13.328Z,3.37
2018-07-04T13:06:27.030Z,3.97
2018-07-04T13:08:40.526Z,3.67
2018-07-04T13:10:54.109Z,3.97
2018-07-04T13:13:07.705Z,3.30
2018-07-04T13:15:21.417Z,3.67
2018-07-04T13:17:34.997Z,3.17
2018-07-04T13:19:48.768Z,3.70
2018-07-04T13:22:02.913Z,3.20
2018-07-04T13:24:16.644Z,3.17
2018-07-04T13:26:30.332Z,3.37
2018-07-04T13:28:43.902Z,3.07
2018-07-04T13:30:57.508Z,3.03
2018-07-04T13:33:11.276Z,3.30
2018-07-04T13:35:25.054Z,3.20
2018-07-04T13:37:32.920Z,2.93
2018-07-04T13:39:46.569Z,3.20
2018-07-04T13:42:00.200Z,2.60
2018-07-04T13:44:13.945Z,3.13
2018-07-04T13:46:27.648Z,3.17
2018-07-04T13:48:41.380Z,2.90
2018-07-04T13:50:54.889Z,2.97
2018-07-04T13:53:08.509Z,2.80
2018-07-04T13:55:22.077Z,3.37
2018-07-04T13:57:35.747Z,2.93
2018-07-04T13:59:49.481Z,3.43
2018-07-04T14:02:03.028Z,3.30
2018-07-04T14:04:16.729Z,3.00
2018-07-04T14:06:30.345Z,3.20
2018-07-04T14:08:43.879Z,2.80
2018-07-04T14:10:57.605Z,2.40
2018-07-04T14:13:11.583Z,3.53
2018-07-04T14:15:25.369Z,2.80
2018-07-04T14:17:39.073Z,3.13
2018-07-04T14:19:52.757Z,3.00
2018-07-04T14:22:06.388Z,2.80
2018-07-04T14:24:20.037Z,2.80
2018-07-04T14:26:33.742Z,3.30
2018-07-04T14:28:47.491Z,3.03
2018-07-04T14:31:01.305Z,3.37
2018-07-04T14:33:15.017Z,2.90
2018-07-04T14:35:28.745Z,3.23
2018-07-04T14:37:42.404Z,2.73
2018-07-04T14:39:56.200Z,2.90
2018-07-04T14:42:09.890Z,2.80
2018-07-04T14:44:23.416Z,3.30
2018-07-04T14:46:37.018Z,3.20
2018-07-04T14:48:50.701Z,2.90
2018-07-04T14:51:04.370Z,3.13
2018-07-04T14:53:17.937Z,2.90
2018-07-04T14:55:31.603Z,2.83
2018-07-04T14:57:45.332Z,3.13
2018-07-04T14:59:59.003Z,2.60
2018-07-04T15:02:12.559Z,3.43
2018-07-04T15:04:26.387Z,3.10
2018-07-04T15:06:40.018Z,3.03
2018-07-04T15:08:53.548Z,3.10
2018-07-04T15:11:07.171Z,2.40
2018-07-04T15:13:20.907Z,2.60
2018-07-04T15:15:34.525Z,3.30
2018-07-04T15:17:48.156Z,3.27
2018-07-04T15:20:02.065Z,3.00
2018-07-04T15:22:15.737Z,3.20
2018-07-04T15:24:29.279Z,2.87
2018-07-04T15:26:42.988Z,3.47
2018-07-04T15:28:56.724Z,2.93
2018-07-04T15:31:10.515Z,3.60
2018-07-04T15:33:24.217Z,2.77
2018-07-04T15:35:37.752Z,2.90
2018-07-04T15:37:51.379Z,3.00
2018-07-04T15:40:04.978Z,3.30
2018-07-04T15:42:18.804Z,3.10
2018-07-04T15:44:32.603Z,2.47
2018-07-04T15:46:46.181Z,3.63
2018-07-04T15:48:59.815Z,3.10
2018-07-04T15:51:13.589Z,3.07
2018-07-04T15:53:27.233Z,3.47
2018-07-04T15:55:41.000Z,3.00
2018-07-04T15:57:54.616Z,3.10
2018-07-04T16:00:08.346Z,2.73
2018-07-04T16:02:22.061Z,3.60
2018-07-04T16:04:35.688Z,3.17
2018-07-04T16:06:49.253Z,3.10
2018-07-04T16:09:04.138Z,3.33
2018-07-04T16:11:17.897Z,3.40
2018-07-04T16:13:31.572Z,2.83
2018-07-04T16:15:45.222Z,3.30
2018-07-04T16:17:58.876Z,3.30
2018-07-04T16:20:12.461Z,3.47
2018-07-04T16:22:26.064Z,3.50
2018-07-04T16:24:39.717Z,3.17
2018-07-04T16:26:53.338Z,3.10
2018-07-04T16:29:07.093Z,3.60
2018-07-04T16:31:20.757Z,3.30
2018-07-04T16:33:38.289Z,3.20
2018-07-04T16:35:51.916Z,3.17
2018-07-04T16:38:05.640Z,3.10
2018-07-04T16:40:19.341Z,3.10
2018-07-04T16:42:32.974Z,3.03
2018-07-04T16:44:46.836Z,3.10
2018-07-04T16:46:54.621Z,2.80
2018-07-04T16:49:08.338Z,3.13
2018-07-04T16:51:21.984Z,2.50
2018-07-04T16:53:35.602Z,3.03
2018-07-04T16:55:49.276Z,2.97
2018-07-04T16:58:02.849Z,3.17
2018-07-04T17:00:16.532Z,3.17
2018-07-04T17:02:30.175Z,3.30
2018-07-04T17:04:43.875Z,3.47
2018-07-04T17:06:57.629Z,3.20
2018-07-04T17:09:05.443Z,3.00
2018-07-04T17:11:19.118Z,3.37
2018-07-04T17:13:32.657Z,3.23
2018-07-04T17:15:46.285Z,3.00
2018-07-04T17:18:00.057Z,3.20
2018-07-04T17:20:13.889Z,3.10
2018-07-04T17:22:27.438Z,3.20
2018-07-04T17:24:41.201Z,3.30
2018-07-04T17:26:54.741Z,2.77
2018-07-04T17:29:08.385Z,3.30
2018-07-04T17:31:22.196Z,3.70
2018-07-04T17:33:35.808Z,3.13
2018-07-04T17:35:49.696Z,3.50
2018-07-04T17:38:03.389Z,3.33
2018-07-04T17:40:16.988Z,3.60
2018-07-04T17:42:30.675Z,4.20
2018-07-04T17:44:44.368Z,4.13
2018-07-04T17:46:57.945Z,3.37
2018-07-04T17:49:11.632Z,3.83
2018-07-04T17:51:25.301Z,4.00
2018-07-04T17:53:38.834Z,3.70
2018-07-04T17:55:52.646Z,3.13
2018-07-04T17:58:06.293Z,3.40
2018-07-04T18:00:19.916Z,3.57
2018-07-04T18:02:33.628Z,3.57
2018-07-04T18:04:47.372Z,3.30
2018-07-04T18:07:01.137Z,3.60
2018-07-04T18:09:14.856Z,2.70
2018-07-04T18:11:28.596Z,3.40
2018-07-04T18:13:42.334Z,3.37
2018-07-04T18:15:56.072Z,3.27
2018-07-04T18:18:09.775Z,3.07
2018-07-04T18:20:23.332Z,3.60
2018-07-04T18:22:36.977Z,3.37
2018-07-04T18:24:50.684Z,3.30
2018-07-04T18:27:04.389Z,3.83
2018-07-04T18:29:17.923Z,2.60
2018-07-04T18:31:31.600Z,2.97
2018-07-04T18:33:45.304Z,3.27
2018-07-04T18:35:58.924Z,3.10
2018-07-04T18:38:12.500Z,3.27
2018-07-04T18:40:20.727Z,3.13
2018-07-04T18:42:34.463Z,3.73
2018-07-04T18:44:48.136Z,2.93
2018-07-04T18:47:01.744Z,3.70
2018-07-04T18:49:15.556Z,3.20
2018-07-04T18:51:29.180Z,3.10
2018-07-04T18:53:43.020Z,3.10
2018-07-04T18:55:56.558Z,3.43
2018-07-04T18:58:10.264Z,3.20
2018-07-04T19:00:23.978Z,3.27
2018-07-04T19:02:37.611Z,3.23
2018-07-04T19:04:51.311Z,3.87
2018-07-04T19:07:04.989Z,4.00
2018-07-04T19:09:18.665Z,3.80
2018-07-04T19:11:32.172Z,3.60
2018-07-04T19:13:45.805Z,4.17
2018-07-04T19:15:59.400Z,4.03
2018-07-04T19:18:13.056Z,3.47
2018-07-04T19:20:26.706Z,3.57
2018-07-04T19:22:40.240Z,3.40
2018-07-04T19:24:48.204Z,3.67
2018-07-04T19:27:01.890Z,3.83
2018-07-04T19:29:15.533Z,3.70
2018-07-04T19:31:29.152Z,3.50
2018-07-04T19:33:42.848Z,3.60
2018-07-04T19:35:56.504Z,3.73
2018-07-04T19:38:10.054Z,3.60
2018-07-04T19:40:23.732Z,4.13
2018-07-04T19:42:37.333Z,3.50
2018-07-04T19:44:51.012Z,3.63
2018-07-04T19:47:04.655Z,3.40
2018-07-04T19:49:18.424Z,3.10
2018-07-04T19:51:32.381Z,3.47
2018-07-04T19:53:46.044Z,3.43
2018-07-04T19:55:59.831Z,3.27
2018-07-04T19:58:13.689Z,3.97
2018-07-04T20:00:27.290Z,3.97
2018-07-04T20:02:41.025Z,3.60
2018-07-04T20:04:54.870Z,4.70
2018-07-04T20:07:08.928Z,6.60
2018-07-04T20:09:22.620Z,5.83
2018-07-04T20:11:36.261Z,6.07
2018-07-04T20:13:43.996Z,5.53
2018-07-04T20:15:57.953Z,4.20
2018-07-04T20:18:11.595Z,4.80
2018-07-04T20:20:25.285Z,4.30
2018-07-04T20:22:39.017Z,4.10
2018-07-04T20:24:52.566Z,4.10
2018-07-04T20:27:06.036Z,4.30
2018-07-04T20:29:23.480Z,4.33
2018-07-04T20:31:37.127Z,3.60
2018-07-04T20:33:44.923Z,4.10
2018-07-04T20:35:58.581Z,4.13
2018-07-04T20:38:12.080Z,4.20
2018-07-04T20:40:25.743Z,4.30
2018-07-04T20:42:39.328Z,4.40
2018-07-04T20:44:53.022Z,4.93
2018-07-04T20:47:06.628Z,4.23
2018-07-04T20:49:20.303Z,4.17
2018-07-04T20:51:33.908Z,3.57
2018-07-04T20:53:47.474Z,3.83
2018-07-04T20:56:01.162Z,4.00
2018-07-04T20:58:14.905Z,3.40
2018-07-04T21:00:28.575Z,3.67
2018-07-04T21:02:42.272Z,3.50
2018-07-04T21:04:55.806Z,4.27
2018-07-04T21:07:09.521Z,4.53
2018-07-04T21:09:23.249Z,4.53
2018-07-04T21:11:37.021Z,4.40
2018-07-04T21:13:50.760Z,3.80
2018-07-04T21:16:05.337Z,4.20
2018-07-04T21:18:19.067Z,3.90
2018-07-04T21:20:32.760Z,4.13
2018-07-04T21:22:46.385Z,4.50
2018-07-04T21:25:00.233Z,4.00
2018-07-04T21:27:13.861Z,4.20
2018-07-04T21:29:27.457Z,4.27
2018-07-04T21:31:41.133Z,3.97
2018-07-04T21:33:54.936Z,4.10
2018-07-04T21:36:08.451Z,3.80
2018-07-04T21:38:22.050Z,4.50
2018-07-04T21:40:35.700Z,4.20
2018-07-04T21:42:49.299Z,4.60
2018-07-04T21:45:02.935Z,4.30
2018-07-04T21:47:16.525Z,4.03
2018-07-04T21:49:30.493Z,3.73
2018-07-04T21:51:44.156Z,3.60
2018-07-04T21:53:57.821Z,4.23
2018-07-04T21:56:11.508Z,4.40
2018-07-04T21:58:25.266Z,3.87
2018-07-04T22:00:39.085Z,3.77
2018-07-04T22:02:52.712Z,4.27
2018-07-04T22:05:06.326Z,4.30
2018-07-04T22:07:19.944Z,3.27
2018-07-04T22:09:33.582Z,3.10
2018-07-04T22:11:47.245Z,3.50
2018-07-04T22:14:00.972Z,3.30
2018-07-04T22:16:14.665Z,4.20
2018-07-04T22:18:28.253Z,3.83
2018-07-04T22:20:41.945Z,3.07
2018-07-04T22:22:58.360Z,3.40
2018-07-04T22:25:12.003Z,4.20
2018-07-04T22:27:25.622Z,3.23
2018-07-04T22:29:39.346Z,2.90
2018-07-04T22:31:52.884Z,3.23
2018-07-04T22:34:06.492Z,2.90
2018-07-04T22:36:20.048Z,3.10
2018-07-04T22:38:33.677Z,3.27
2018-07-04T22:40:47.537Z,3.50
2018-07-04T22:43:01.144Z,3.03
2018-07-04T22:45:14.833Z,3.53
2018-07-04T22:47:28.608Z,2.90
2018-07-04T22:49:42.144Z,3.10
2018-07-04T22:51:57.487Z,3.40
2018-07-04T22:54:11.160Z,3.10
2018-07-04T22:56:24.964Z,3.17
2018-07-04T22:58:38.660Z,3.93
2018-07-04T23:00:52.175Z,2.63
2018-07-04T23:03:05.742Z,3.10
2018-07-04T23:05:19.353Z,3.27
2018-07-04T23:07:33.137Z,3.60
2018-07-04T23:09:46.885Z,3.23
2018-07-04T23:12:00.461Z,3.07
2018-07-04T23:14:14.198Z,2.80
2018-07-04T23:16:27.893Z,3.00
2018-07-04T23:18:41.616Z,2.90
2018-07-04T23:20:55.324Z,3.40
2018-07-04T23:23:09.068Z,3.07
2018-07-04T23:25:22.746Z,3.43
2018-07-04T23:27:36.267Z,2.80
2018-07-04T23:29:50.013Z,3.50
2018-07-04T23:32:03.654Z,3.20
2018-07-04T23:34:17.297Z,3.40
2018-07-04T23:36:31.053Z,3.23
2018-07-04T23:38:44.688Z,2.70
2018-07-04T23:40:58.444Z,2.97
2018-07-04T23:43:12.486Z,2.80
2018-07-04T23:45:26.193Z,3.37
2018-07-04T23:47:40.014Z,3.60
2018-07-04T23:49:53.608Z,3.33
2018-07-04T23:52:07.498Z,3.33
2018-07-04T23:54:21.101Z,3.00
2018-07-04T23:56:34.738Z,3.43
2018-07-04T23:58:48.480Z,3.13
